Time;durP1;ratioP1;P1;durP2;ratioP2;P2;SDS_P1;SDS_P2;PMS_P1;PMS_P2;Temp;Humidity;BMP_temperature;BMP_pressure;BME280_temperature;BME280_humidity;BME280_pressure;Samples;Min_cycle;Max_cycle;Signal;HPM_P1;HPM_P2
2022/04/11 00:01:24;;;;;;;6.17;4.77;;;2.20;1.00;;;;;;4960490;28;20198;-62
2022/04/11 00:03:51;;;;;;;10.10;5.27;;;2.20;1.00;;;;;;4959615;28;20198;-61
2022/04/11 00:06:18;;;;;;;6.83;4.57;;;2.20;1.00;;;;;;4944071;28;20297;-61
2022/04/11 00:08:45;;;;;;;6.13;5.10;;;2.20;1.00;;;;;;4943533;28;20226;-62
2022/04/11 00:11:12;;;;;;;6.70;5.00;;;2.10;1.00;;;;;;4942637;28;20242;-61
2022/04/11 00:13:40;;;;;;;6.37;4.53;;;2.10;1.00;;;;;;4944057;28;20662;-62
2022/04/11 00:16:07;;;;;;;6.30;4.93;;;2.10;1.00;;;;;;4944166;28;20207;-61
2022/04/11 00:18:35;;;;;;;5.90;5.30;;;2.00;1.00;;;;;;4960628;28;20998;-61
2022/04/11 00:21:03;;;;;;;9.17;5.17;;;2.00;1.00;;;;;;4943382;28;20238;-61
2022/04/11 00:23:30;;;;;;;12.03;6.93;;;2.00;1.00;;;;;;4962067;28;20742;-61
2022/04/11 00:25:57;;;;;;;26.17;15.97;;;2.00;1.00;;;;;;4944463;28;20276;-61
2022/04/11 00:28:23;;;;;;;56.57;29.57;;;2.00;1.00;;;;;;4960692;28;20210;-62
2022/04/11 00:30:52;;;;;;;53.73;28.77;;;2.00;1.00;;;;;;4942893;28;20257;-62
2022/04/11 00:33:19;;;;;;;38.00;21.57;;;2.00;1.00;;;;;;4943647;28;20221;-62
2022/04/11 00:35:46;;;;;;;28.77;17.70;;;1.90;1.00;;;;;;4961976;28;20737;-62
2022/04/11 00:38:13;;;;;;;21.23;12.43;;;1.90;1.00;;;;;;4960267;28;20210;-61
2022/04/11 00:40:40;;;;;;;14.73;8.83;;;1.90;1.00;;;;;;4943442;28;20242;-62
2022/04/11 00:43:08;;;;;;;12.00;7.23;;;1.90;1.00;;;;;;4949801;28;20234;-63
2022/04/11 00:45:34;;;;;;;10.37;7.37;;;1.90;1.00;;;;;;4962136;28;20257;-62
2022/04/11 00:48:03;;;;;;;17.93;9.33;;;1.90;1.00;;;;;;4943767;28;20210;-63
2022/04/11 00:50:30;;;;;;;16.90;10.50;;;1.90;1.00;;;;;;4961662;28;20198;-64
2022/04/11 00:53:00;;;;;;;22.70;14.23;;;1.90;1.00;;;;;;4946299;28;20282;-64
2022/04/11 00:55:28;;;;;;;12.93;8.77;;;1.90;1.00;;;;;;4962885;28;20282;-63
2022/04/11 00:57:56;;;;;;;18.60;11.73;;;1.90;1.00;;;;;;4945502;28;20218;-63
2022/04/11 01:00:23;;;;;;;16.53;10.07;;;1.80;1.00;;;;;;4962028;28;20231;-64
2022/04/11 01:02:51;;;;;;;26.03;14.50;;;1.80;1.00;;;;;;4945079;28;20191;-63
2022/04/11 01:05:18;;;;;;;9.83;6.97;;;1.80;1.00;;;;;;4943346;28;20599;-63
2022/04/11 01:07:45;;;;;;;15.57;9.43;;;1.80;1.00;;;;;;4960972;28;20206;-64
2022/04/11 01:10:13;;;;;;;12.90;7.97;;;1.80;1.00;;;;;;4962345;28;20249;-63
2022/04/11 01:12:41;;;;;;;13.87;7.03;;;1.80;1.00;;;;;;4944149;28;20557;-63
2022/04/11 01:15:11;;;;;;;7.63;5.30;;;1.80;1.00;;;;;;4950291;28;20201;-64
2022/04/11 01:17:38;;;;;;;10.33;5.40;;;1.70;1.00;;;;;;4961662;28;20195;-64
2022/04/11 01:20:10;;;;;;;6.57;4.80;;;1.80;30.60;;;;;;4943352;28;20230;-64
2022/04/11 01:22:39;;;;;;;6.53;4.80;;;1.80;1.00;;;;;;4950412;28;20198;-63
2022/04/11 01:25:07;;;;;;;6.67;5.00;;;1.70;1.00;;;;;;4945524;28;20203;-63
2022/04/11 01:27:36;;;;;;;5.93;5.00;;;1.70;1.00;;;;;;4959827;28;20198;-64
2022/04/11 01:30:05;;;;;;;6.83;4.63;;;1.60;49.30;;;;;;4963250;28;20194;-65
2022/04/11 01:32:38;;;;;;;5.53;4.53;;;1.60;29.80;;;;;;4949437;28;20199;-65
2022/04/11 01:35:27;;;;;;;8.23;4.50;;;1.70;24.30;;;;;;4942002;28;20213;-64
2022/04/11 01:38:00;;;;;;;9.53;4.43;;;1.60;48.90;;;;;;4951491;28;20238;-65
2022/04/11 01:40:27;;;;;;;6.37;4.17;;;1.60;55.60;;;;;;4929287;28;20206;-65
2022/04/11 01:42:54;;;;;;;9.20;5.13;;;1.60;41.10;;;;;;4944507;28;20203;-65
2022/04/11 01:45:21;;;;;;;11.40;5.37;;;1.60;53.30;;;;;;4933935;28;20202;-65
2022/04/11 01:47:48;;;;;;;7.37;4.53;;;1.60;94.40;;;;;;4961431;28;20195;-64
2022/04/11 01:50:16;;;;;;;4.93;4.43;;;1.60;39.80;;;;;;4946590;28;20217;-63
2022/04/11 01:52:44;;;;;;;10.47;4.77;;;1.60;40.30;;;;;;4943484;28;20257;-63
2022/04/11 01:55:12;;;;;;;9.60;4.33;;;1.60;35.90;;;;;;4947857;28;20254;-65
2022/04/11 01:57:45;;;;;;;6.50;5.03;;;1.50;36.50;;;;;;4943430;28;20635;-63
2022/04/11 02:00:12;;;;;;;6.23;4.70;;;1.50;47.10;;;;;;4946992;28;20207;-63
2022/04/11 02:02:44;;;;;;;6.47;5.00;;;1.50;31.00;;;;;;4933803;28;20590;-65
2022/04/11 02:05:11;;;;;;;7.67;6.13;;;1.50;54.30;;;;;;4950461;28;20256;-65
2022/04/11 02:07:39;;;;;;;14.43;8.87;;;1.50;40.90;;;;;;4944754;28;20206;-64
2022/04/11 02:10:07;;;;;;;10.20;7.83;;;1.50;53.80;;;;;;4938666;28;20258;-64
2022/04/11 02:12:34;;;;;;;9.10;6.13;;;1.50;26.90;;;;;;4931419;28;20781;-63
2022/04/11 02:15:02;;;;;;;9.13;5.43;;;1.60;10.10;;;;;;4941962;28;20199;-63
2022/04/11 02:17:29;;;;;;;6.80;4.77;;;1.60;4.50;;;;;;4959283;28;20198;-64
2022/04/11 02:19:56;;;;;;;6.40;4.70;;;1.60;1.00;;;;;;4960448;28;20598;-64
2022/04/11 02:22:24;;;;;;;6.07;4.37;;;1.50;12.40;;;;;;4942919;28;20198;-64
2022/04/11 02:24:51;;;;;;;6.40;4.90;;;1.50;50.20;;;;;;4959091;28;20205;-65
2022/04/11 02:27:18;;;;;;;7.97;4.40;;;1.40;56.70;;;;;;4950041;28;20206;-63
2022/04/11 02:29:45;;;;;;;7.73;4.53;;;1.40;65.40;;;;;;4948558;28;20206;-62
2022/04/11 02:32:13;;;;;;;9.60;4.47;;;1.40;78.60;;;;;;4923106;28;20206;-65
2022/04/11 02:34:40;;;;;;;9.27;4.93;;;1.40;85.20;;;;;;4957869;28;20191;-63
2022/04/11 02:37:07;;;;;;;6.50;4.37;;;1.40;91.20;;;;;;4941201;28;20210;-64
2022/04/11 02:39:34;;;;;;;5.47;4.47;;;1.40;90.60;;;;;;4941650;28;20215;-63
2022/04/11 02:42:01;;;;;;;8.17;4.47;;;1.40;90.10;;;;;;4943469;28;20198;-64
2022/04/11 02:44:29;;;;;;;5.73;4.67;;;1.40;40.10;;;;;;4927503;28;20212;-63
2022/04/11 02:46:56;;;;;;;5.63;4.40;;;1.50;26.80;;;;;;4956023;28;20199;-63
2022/04/11 02:49:23;;;;;;;8.17;4.70;;;1.50;1.00;;;;;;4933481;28;20207;-63
2022/04/11 02:51:59;;;;;;;8.30;5.17;;;1.50;1.00;;;;;;4949941;28;20213;-63
2022/04/11 02:54:26;;;;;;;7.00;4.20;;;1.50;1.00;;;;;;4932575;28;20203;-63
2022/04/11 02:56:53;;;;;;;6.30;4.33;;;1.50;1.00;;;;;;4929783;28;20293;-64
2022/04/11 02:59:22;;;;;;;6.00;4.30;;;1.50;1.00;;;;;;4933486;28;20242;-63
2022/04/11 03:01:54;;;;;;;5.37;4.50;;;1.60;1.00;;;;;;4941468;28;21070;-64
2022/04/11 03:04:22;;;;;;;7.03;4.67;;;1.60;1.00;;;;;;4956436;28;20202;-63
2022/04/11 03:07:08;;;;;;;5.87;4.30;;;1.60;1.00;;;;;;4948946;28;20201;-64
2022/04/11 03:09:36;;;;;;;6.57;4.40;;;1.60;1.00;;;;;;4944469;28;20217;-64
2022/04/11 03:12:03;;;;;;;6.73;4.13;;;1.60;1.00;;;;;;4961511;28;20195;-64
2022/04/11 03:14:31;;;;;;;4.60;4.03;;;1.60;1.00;;;;;;4940325;28;20223;-64
2022/04/11 03:16:58;;;;;;;6.20;4.30;;;1.60;1.00;;;;;;4946679;28;20266;-63
2022/04/11 03:19:27;;;;;;;5.03;4.53;;;1.60;1.00;;;;;;4920575;28;20222;-63
2022/04/11 03:21:54;;;;;;;18.07;11.17;;;1.50;1.00;;;;;;4954809;28;20215;-62
2022/04/11 03:24:21;;;;;;;19.60;12.10;;;1.50;1.00;;;;;;4941893;28;20277;-63
2022/04/11 03:26:47;;;;;;;12.43;7.83;;;1.50;1.00;;;;;;4923433;28;20230;-63
2022/04/11 03:29:23;;;;;;;11.13;6.03;;;1.50;1.00;;;;;;4940346;28;20206;-65
2022/04/11 03:31:50;;;;;;;7.67;5.03;;;1.50;1.00;;;;;;4943968;28;20206;-63
2022/04/11 03:34:19;;;;;;;7.43;4.77;;;1.50;1.00;;;;;;4956945;28;20795;-63
2022/04/11 03:36:46;;;;;;;10.60;5.10;;;1.40;18.20;;;;;;4953571;28;20229;-64
2022/04/11 03:39:14;;;;;;;6.10;4.97;;;1.40;41.00;;;;;;4954309;28;20222;-63
2022/04/11 03:41:43;;;;;;;6.80;4.70;;;1.40;73.80;;;;;;4940803;28;20202;-63
2022/04/11 03:44:18;;;;;;;5.03;4.53;;;1.50;91.60;;;;;;4943348;28;20223;-62
2022/04/11 03:46:48;;;;;;;6.53;4.50;;;1.40;64.70;;;;;;4942120;28;20202;-63
2022/04/11 03:49:20;;;;;;;7.93;5.27;;;1.40;52.60;;;;;;4925287;28;20688;-63
2022/04/11 03:51:47;;;;;;;5.53;4.93;;;1.40;83.40;;;;;;4937724;28;20257;-63
2022/04/11 03:54:14;;;;;;;9.07;5.50;;;1.40;99.90;;;;;;4936223;28;20194;-64
2022/04/11 03:56:41;;;;;;;22.63;11.10;;;1.40;99.90;;;;;;4936034;28;20206;-64
2022/04/11 03:59:09;;;;;;;23.93;11.47;;;1.30;98.30;;;;;;4935778;28;20226;-64
2022/04/11 04:01:37;;;;;;;13.40;7.73;;;1.30;99.90;;;;;;4950817;28;20209;-63
2022/04/11 04:04:04;;;;;;;9.17;6.73;;;1.30;99.90;;;;;;4938637;28;20198;-63
2022/04/11 04:06:32;;;;;;;8.57;6.53;;;1.20;99.90;;;;;;4937706;28;20818;-63
2022/04/11 04:08:59;;;;;;;8.40;5.53;;;1.20;99.90;;;;;;4938856;28;20713;-64
2022/04/11 04:11:33;;;;;;;6.27;4.90;;;1.10;99.90;;;;;;4928838;28;20211;-63
2022/04/11 04:14:13;;;;;;;9.20;5.03;;;1.10;99.90;;;;;;4954809;28;20692;-63
2022/04/11 04:16:44;;;;;;;6.93;4.87;;;1.00;99.90;;;;;;4951391;28;20195;-63
2022/04/11 04:19:14;;;;;;;6.20;4.43;;;1.00;99.90;;;;;;4955442;28;20212;-63
2022/04/11 04:21:41;;;;;;;6.87;4.73;;;0.90;99.90;;;;;;4926924;28;20218;-62
2022/04/11 04:24:12;;;;;;;7.00;5.00;;;0.90;99.90;;;;;;4943867;28;20656;-63
2022/04/11 04:26:39;;;;;;;6.20;4.10;;;0.90;99.90;;;;;;4944733;28;20238;-62
2022/04/11 04:29:09;;;;;;;6.97;4.33;;;0.90;1.00;;;;;;4959538;28;20726;-62
2022/04/11 04:31:40;;;;;;;6.27;4.10;;;0.90;99.90;;;;;;4929409;28;20254;-64
2022/04/11 04:34:07;;;;;;;8.40;4.47;;;0.90;99.90;;;;;;4958014;28;20210;-63
2022/04/11 04:36:35;;;;;;;5.53;4.67;;;0.80;99.90;;;;;;4941993;28;20325;-62
2022/04/11 04:39:03;;;;;;;4.63;4.20;;;0.80;99.90;;;;;;4943965;28;20705;-62
2022/04/11 04:41:33;;;;;;;8.77;4.93;;;0.80;1.00;;;;;;4945135;28;20202;-64
2022/04/11 04:44:01;;;;;;;9.20;4.47;;;0.80;1.00;;;;;;4933223;28;20276;-63
2022/04/11 04:46:29;;;;;;;5.73;4.83;;;0.70;1.00;;;;;;4933556;28;20206;-63
2022/04/11 04:49:03;;;;;;;6.20;4.57;;;0.70;1.00;;;;;;4945268;28;20210;-63
2022/04/11 04:51:30;;;;;;;6.57;4.50;;;0.80;1.00;;;;;;4949904;28;20209;-63
2022/04/11 04:54:02;;;;;;;6.53;4.67;;;0.80;1.00;;;;;;4945928;28;20203;-63
2022/04/11 04:56:32;;;;;;;5.87;4.37;;;0.80;99.90;;;;;;4941177;28;20195;-63
2022/04/11 04:59:04;;;;;;;7.93;4.40;;;0.80;99.90;;;;;;4939027;28;20215;-63
2022/04/11 05:01:31;;;;;;;7.70;4.33;;;0.90;99.90;;;;;;4930424;28;20670;-63
2022/04/11 05:03:58;;;;;;;5.67;4.47;;;1.00;99.90;;;;;;4944877;28;20661;-63
2022/04/11 05:06:30;;;;;;;7.33;4.70;;;1.20;99.90;;;;;;4956667;28;20195;-63
2022/04/11 05:08:58;;;;;;;9.70;6.60;;;1.30;99.90;;;;;;4928666;28;20286;-63
2022/04/11 05:11:26;;;;;;;33.77;18.93;;;1.40;99.90;;;;;;4943352;28;20305;-62
2022/04/11 05:13:54;;;;;;;31.87;16.80;;;1.60;42.50;;;;;;4944659;28;20203;-61
2022/04/11 05:16:24;;;;;;;20.73;13.97;;;1.70;1.00;;;;;;4947820;28;20199;-62
2022/04/11 05:18:53;;;;;;;20.17;12.60;;;1.90;1.00;;;;;;4945236;28;20640;-60
2022/04/11 05:21:21;;;;;;;14.80;9.67;;;2.10;1.00;;;;;;4942836;28;20222;-61
2022/04/11 05:23:49;;;;;;;8.83;6.30;;;2.20;1.00;;;;;;4943932;28;20205;-61
2022/04/11 05:26:18;;;;;;;7.70;5.13;;;2.40;1.00;;;;;;4928810;28;20838;-60
2022/04/11 05:28:48;;;;;;;7.17;5.17;;;2.40;1.00;;;;;;4945657;28;20218;-61
2022/04/11 05:31:17;;;;;;;10.47;4.77;;;2.50;99.90;;;;;;4946768;28;20222;-60
2022/04/11 05:33:45;;;;;;;6.90;4.43;;;2.60;99.90;;;;;;4933195;28;20198;-61
2022/04/11 05:36:15;;;;;;;8.73;4.20;;;2.70;99.90;;;;;;4959951;28;20588;-61
2022/04/11 05:38:43;;;;;;;8.37;3.87;;;2.70;99.90;;;;;;4928135;28;20290;-60
2022/04/11 05:41:11;;;;;;;6.03;4.20;;;2.80;99.90;;;;;;4944201;28;20223;-61
2022/04/11 05:43:43;;;;;;;5.23;4.03;;;2.80;99.90;;;;;;4950968;28;20274;-61
2022/04/11 05:46:12;;;;;;;4.20;3.43;;;2.90;99.90;;;;;;4942920;28;20202;-60
2022/04/11 05:48:45;;;;;;;6.83;3.70;;;2.90;99.90;;;;;;4947770;28;20210;-60
2022/04/11 05:51:12;;;;;;;5.00;3.70;;;3.10;99.90;;;;;;4939868;28;20654;-60
2022/04/11 05:53:40;;;;;;;5.97;3.83;;;3.20;99.90;;;;;;4960200;28;20768;-61
2022/04/11 05:56:08;;;;;;;6.20;3.70;;;3.40;99.90;;;;;;4943903;28;20226;-60
2022/04/11 05:58:35;;;;;;;4.87;3.27;;;3.80;99.90;;;;;;4928082;28;20841;-61
2022/04/11 06:01:04;;;;;;;4.20;3.03;;;6.50;1.00;;;;;;4955748;28;20206;-63
2022/04/11 06:03:37;;;;;;;4.73;3.23;;;9.00;1.00;;;;;;4960597;28;20202;-63
2022/04/11 06:06:05;;;;;;;6.40;2.93;;;10.30;1.00;;;;;;4947783;28;20698;-63
2022/04/11 06:08:32;;;;;;;4.63;2.67;;;10.90;1.00;;;;;;4940625;28;20198;-62
2022/04/11 06:10:59;;;;;;;3.57;2.80;;;12.20;1.00;;;;;;4946703;28;20238;-63
2022/04/11 06:13:26;;;;;;;4.27;3.03;;;13.00;1.00;;;;;;4939602;28;20305;-64
2022/04/11 06:15:58;;;;;;;9.77;3.30;;;14.00;1.00;;;;;;4936010;28;20201;-65
2022/04/11 06:18:26;;;;;;;3.80;2.70;;;14.60;99.90;;;;;;4961719;28;20195;-64
2022/04/11 06:20:54;;;;;;;6.32;2.75;;;15.20;99.90;;;;;;4944319;28;20241;-63
2022/04/11 06:23:21;;;;;;;4.28;2.78;;;16.10;99.90;;;;;;4950201;28;20619;-64
2022/04/11 06:25:48;;;;;;;4.18;2.45;;;17.10;99.90;;;;;;4960880;28;20233;-63
2022/04/11 06:28:15;;;;;;;4.22;2.38;;;16.90;99.90;;;;;;4941501;28;20190;-63
2022/04/11 06:30:43;;;;;;;3.70;2.10;;;17.60;99.90;;;;;;4946844;28;20202;-63
2022/04/11 06:33:10;;;;;;;3.00;2.20;;;17.20;99.90;;;;;;4957235;28;20198;-63
2022/04/11 06:35:37;;;;;;;5.05;2.17;;;16.30;99.90;;;;;;4956349;28;20214;-64
2022/04/11 06:38:05;;;;;;;4.03;2.15;;;15.00;99.90;;;;;;4932532;28;20206;-64
2022/04/11 06:40:32;;;;;;;2.75;2.10;;;13.80;99.90;;;;;;4943006;28;20843;-64
2022/04/11 06:42:59;;;;;;;5.40;2.28;;;13.10;99.90;;;;;;4957739;28;20198;-63
2022/04/11 06:45:44;;;;;;;4.10;2.37;;;12.80;99.90;;;;;;4939778;28;20213;-64
2022/04/11 06:48:11;;;;;;;5.83;2.40;;;12.20;99.90;;;;;;4943264;28;20198;-64
2022/04/11 06:50:39;;;;;;;9.47;3.47;;;12.00;99.90;;;;;;4939975;28;21117;-63
2022/04/11 06:53:06;;;;;;;5.07;2.57;;;12.40;99.90;;;;;;4960618;28;20285;-63
2022/04/11 06:55:33;;;;;;;3.33;2.70;;;12.70;99.90;;;;;;4942932;28;20562;-64
2022/04/11 06:58:01;;;;;;;6.20;2.10;;;13.10;99.90;;;;;;4959599;28;20261;-64
2022/04/11 07:00:28;;;;;;;8.37;2.27;;;13.20;99.90;;;;;;4946418;28;20690;-63
2022/04/11 07:02:55;;;;;;;8.00;2.73;;;13.50;99.90;;;;;;4957893;28;20190;-64
2022/04/11 07:05:23;;;;;;;4.17;2.40;;;14.10;99.90;;;;;;4946365;28;20198;-64
2022/04/11 07:07:50;;;;;;;5.97;2.47;;;14.50;99.90;;;;;;4954660;28;21725;-64
2022/04/11 07:10:17;;;;;;;7.13;2.63;;;14.30;99.90;;;;;;4957008;28;20202;-63
2022/04/11 07:12:43;;;;;;;5.80;2.77;;;13.10;99.90;;;;;;4958064;28;20278;-64
2022/04/11 07:15:11;;;;;;;6.17;3.13;;;13.30;99.90;;;;;;4958553;28;20278;-63
2022/04/11 07:17:38;;;;;;;6.23;2.47;;;14.20;99.90;;;;;;4936899;28;20199;-64
2022/04/11 07:20:05;;;;;;;4.23;2.77;;;15.20;99.90;;;;;;4954916;28;20304;-64
2022/04/11 07:22:32;;;;;;;5.40;2.28;;;16.70;99.90;;;;;;4957188;28;20227;-63
2022/04/11 07:25:01;;;;;;;5.03;2.35;;;18.60;99.90;;;;;;4947379;28;20662;-62
2022/04/11 07:27:28;;;;;;;6.10;2.63;;;20.30;99.90;;;;;;4946760;28;20206;-63
2022/04/11 07:29:55;;;;;;;4.57;2.80;;;19.70;99.90;;;;;;4940097;28;20245;-64
2022/04/11 07:32:22;;;;;;;5.78;2.70;;;19.00;99.90;;;;;;4940923;28;20218;-64
2022/04/11 07:34:49;;;;;;;3.97;2.40;;;17.10;99.90;;;;;;4958722;28;20199;-63
2022/04/11 07:37:15;;;;;;;7.05;2.78;;;15.60;99.90;;;;;;4957323;28;20198;-63
2022/04/11 07:39:43;;;;;;;5.10;2.45;;;16.20;99.90;;;;;;4938551;28;20620;-63
2022/04/11 07:42:10;;;;;;;6.03;2.50;;;17.50;99.90;;;;;;4958226;28;20202;-64
2022/04/11 07:44:37;;;;;;;5.03;2.55;;;17.70;99.90;;;;;;4943925;28;20238;-64
2022/04/11 07:47:04;;;;;;;6.95;2.75;;;17.10;99.90;;;;;;4947318;28;20202;-62
2022/04/11 07:49:31;;;;;;;4.38;2.22;;;17.50;99.90;;;;;;4960609;28;20194;-63
2022/04/11 07:51:58;;;;;;;3.55;2.53;;;18.50;99.90;;;;;;4943235;28;20639;-62
2022/04/11 07:54:25;;;;;;;5.00;2.35;;;18.80;99.90;;;;;;4948969;28;20217;-62
2022/04/11 07:56:52;;;;;;;5.68;3.00;;;19.20;99.90;;;;;;4941975;28;20268;-62
2022/04/11 07:59:19;;;;;;;6.45;2.33;;;22.90;99.90;;;;;;4959017;28;20276;-62
2022/04/11 08:01:46;;;;;;;4.95;2.08;;;23.50;99.90;;;;;;4948622;28;20222;-64
2022/04/11 08:04:13;;;;;;;4.10;2.35;;;25.30;99.90;;;;;;4962352;28;20202;-63
2022/04/11 08:06:40;;;;;;;7.20;2.50;;;25.80;99.90;;;;;;4959545;28;20198;-62
2022/04/11 08:09:07;;;;;;;5.03;2.55;;;25.90;99.90;;;;;;4961113;28;20191;-62
2022/04/11 08:11:34;;;;;;;3.85;2.50;;;25.90;99.90;;;;;;4960559;28;21814;-63
2022/04/11 08:14:01;;;;;;;6.82;2.58;;;24.90;99.90;;;;;;4959495;28;20202;-62
2022/04/11 08:16:28;;;;;;;4.45;2.25;;;25.10;99.90;;;;;;4926566;28;20199;-63
2022/04/11 08:18:55;;;;;;;5.93;2.40;;;24.40;99.90;;;;;;4959329;28;20297;-62
2022/04/11 08:21:22;;;;;;;4.47;2.38;;;24.30;99.90;;;;;;4941517;28;21693;-62
2022/04/11 08:23:49;;;;;;;4.03;2.30;;;24.10;99.90;;;;;;4960225;28;20327;-62
2022/04/11 08:26:16;;;;;;;4.65;2.45;;;24.70;99.90;;;;;;4958584;28;20230;-62
2022/04/11 08:28:43;;;;;;;6.63;2.60;;;24.60;99.90;;;;;;4958517;28;20186;-63
2022/04/11 08:31:10;;;;;;;4.28;2.22;;;25.50;99.90;;;;;;4940328;28;20198;-64
2022/04/11 08:33:37;;;;;;;2.95;2.50;;;25.80;99.90;;;;;;4959225;28;20198;-62
2022/04/11 08:36:04;;;;;;;5.72;2.20;;;26.80;99.90;;;;;;4959779;28;20194;-62
2022/04/11 08:38:31;;;;;;;3.22;2.15;;;27.20;99.90;;;;;;4958431;28;20203;-62
2022/04/11 08:41:02;;;;;;;5.75;2.47;;;26.90;99.90;;;;;;4959144;28;20266;-62
2022/04/11 08:43:32;;;;;;;4.20;2.42;;;27.60;99.90;;;;;;4963983;28;20226;-63
2022/04/11 08:46:03;;;;;;;4.60;2.70;;;26.10;99.90;;;;;;4945629;28;20221;-62
2022/04/11 08:48:31;;;;;;;5.93;2.33;;;26.50;99.90;;;;;;4959916;28;20277;-62
2022/04/11 08:51:03;;;;;;;9.48;2.55;;;27.20;99.90;;;;;;4961562;28;20206;-62
2022/04/11 08:53:31;;;;;;;3.33;2.28;;;28.80;99.90;;;;;;4963919;28;20534;-62
2022/04/11 08:55:58;;;;;;;4.55;2.40;;;27.00;99.90;;;;;;4964759;28;20277;-62
2022/04/11 08:58:25;;;;;;;4.90;2.08;;;26.20;99.90;;;;;;4950670;28;20730;-62
2022/04/11 09:00:53;;;;;;;4.32;2.47;;;24.60;99.90;;;;;;4959137;28;20909;-62
2022/04/11 09:03:20;;;;;;;5.03;2.40;;;26.10;99.90;;;;;;4951595;28;20202;-62
2022/04/11 09:06:07;;;;;;;3.65;2.65;;;26.80;99.90;;;;;;4945772;28;20281;-63
2022/04/11 09:08:51;;;;;;;5.72;2.67;;;28.00;99.90;;;;;;4959793;28;20199;-63
2022/04/11 09:11:31;;;;;;;3.92;2.45;;;28.00;99.90;;;;;;4961518;28;20190;-63
2022/04/11 09:14:02;;;;;;;6.72;2.70;;;27.70;99.90;;;;;;4965808;28;20240;-63
2022/04/11 09:16:47;;;;;;;5.07;2.80;;;27.60;99.90;;;;;;4949573;28;20306;-62
2022/04/11 09:19:20;;;;;;;3.83;2.40;;;29.00;99.90;;;;;;4946771;28;20786;-63
2022/04/11 09:22:07;;;;;;;5.00;2.70;;;28.60;99.90;;;;;;4958801;28;20668;-62
2022/04/11 09:24:35;;;;;;;11.00;3.15;;;29.50;99.90;;;;;;4944437;28;21596;-62
2022/04/11 09:27:04;;;;;;;3.95;2.50;;;29.40;99.90;;;;;;4946396;28;20703;-63
2022/04/11 09:29:35;;;;;;;6.95;2.90;;;29.70;99.90;;;;;;4958978;28;20241;-62
2022/04/11 09:32:04;;;;;;;4.68;2.63;;;29.40;99.90;;;;;;4959233;28;20194;-64
2022/04/11 09:34:31;;;;;;;7.40;2.95;;;29.50;99.90;;;;;;4941927;28;20210;-63
2022/04/11 09:37:01;;;;;;;6.22;2.72;;;28.90;99.90;;;;;;4950772;28;20213;-63
2022/04/11 09:39:33;;;;;;;6.53;3.28;;;28.20;99.90;;;;;;4959014;28;20758;-62
2022/04/11 09:42:04;;;;;;;4.05;3.00;;;28.30;99.90;;;;;;4940966;28;20214;-62
2022/04/11 09:44:33;;;;;;;3.13;2.75;;;26.90;99.90;;;;;;4959435;28;20889;-62
2022/04/11 09:47:03;;;;;;;5.00;3.28;;;26.60;99.90;;;;;;4960604;28;20206;-62
2022/04/11 09:49:31;;;;;;;4.43;3.05;;;27.10;99.90;;;;;;4959356;28;20284;-62
2022/04/11 09:52:12;;;;;;;5.93;3.20;;;27.10;99.90;;;;;;4958569;28;20233;-62
2022/04/11 09:54:44;;;;;;;5.57;3.40;;;27.10;99.90;;;;;;4959854;28;20201;-62
2022/04/11 09:57:16;;;;;;;4.18;2.80;;;27.90;99.90;;;;;;4941128;28;20224;-62
2022/04/11 09:59:45;;;;;;;4.80;2.90;;;27.20;99.90;;;;;;4937560;28;20745;-62
2022/04/11 10:02:37;;;;;;;5.38;2.97;;;26.50;99.90;;;;;;4959216;28;20250;-62
2022/04/11 10:05:05;;;;;;;5.63;2.72;;;27.20;99.90;;;;;;4942499;28;20198;-63
2022/04/11 10:07:33;;;;;;;4.40;2.65;;;27.00;99.90;;;;;;4941688;28;20338;-63
2022/04/11 10:10:01;;;;;;;6.32;2.95;;;26.90;99.90;;;;;;4940427;28;20264;-63
2022/04/11 10:12:29;;;;;;;5.80;2.90;;;25.50;99.90;;;;;;4940174;28;20289;-64
2022/04/11 10:14:56;;;;;;;5.38;2.90;;;21.60;99.90;;;;;;4939089;28;20198;-64
2022/04/11 10:17:23;;;;;;;5.38;3.20;;;21.10;99.90;;;;;;4942001;28;20207;-63
2022/04/11 10:19:51;;;;;;;4.45;3.20;;;21.20;99.90;;;;;;4942477;28;20246;-64
2022/04/11 10:22:27;;;;;;;6.20;3.30;;;22.50;99.90;;;;;;4938832;28;20215;-63
2022/04/11 10:25:07;;;;;;;6.10;3.08;;;21.80;99.90;;;;;;4928244;28;20637;-62
2022/04/11 10:27:37;;;;;;;5.65;2.53;;;22.30;99.90;;;;;;4942301;28;20198;-63
2022/04/11 10:30:28;;;;;;;7.00;3.03;;;23.70;99.90;;;;;;4962328;28;20237;-62
2022/04/11 10:32:56;;;;;;;5.63;3.05;;;26.50;99.90;;;;;;4946854;28;20198;-64
2022/04/11 10:35:43;;;;;;;4.18;2.78;;;27.20;99.90;;;;;;4957589;28;20599;-63
2022/04/11 10:38:12;;;;;;;4.68;2.72;;;26.50;99.90;;;;;;4961989;28;21135;-63
2022/04/11 10:40:47;;;;;;;4.25;2.55;;;25.40;99.90;;;;;;4956376;28;20524;-64
2022/04/11 10:43:34;;;;;;;5.28;3.05;;;25.50;99.90;;;;;;4959920;28;20281;-63
2022/04/11 10:46:01;;;;;;;6.00;2.90;;;26.30;99.90;;;;;;4957890;28;20198;-62
2022/04/11 10:49:08;;;;;;;5.38;2.65;;;24.80;99.90;;;;;;4946870;28;20215;-62
2022/04/11 10:51:37;;;;;;;4.03;2.60;;;25.90;99.90;;;;;;4967843;28;20215;-62
2022/04/11 10:54:26;;;;;;;5.93;2.88;;;25.50;99.90;;;;;;4962506;28;20209;-63
2022/04/11 10:57:50;;;;;;;4.97;2.75;;;24.40;99.90;;;;;;4947912;28;20250;-63
2022/04/11 11:00:26;;;;;;;4.38;2.80;;;22.90;99.90;;;;;;4948523;28;20298;-63
2022/04/11 11:02:54;;;;;;;4.35;2.90;;;23.30;99.90;;;;;;4946281;28;20209;-64
2022/04/11 11:05:44;;;;;;;4.38;2.65;;;22.90;99.90;;;;;;4948355;28;20248;-63
2022/04/11 11:08:14;;;;;;;3.72;2.40;;;22.50;99.90;;;;;;4941925;28;20205;-65
2022/04/11 11:10:49;;;;;;;3.65;2.40;;;22.60;99.90;;;;;;4943623;28;20191;-62
2022/04/11 11:13:39;;;;;;;4.90;2.88;;;22.70;99.90;;;;;;4961849;28;20190;-62
2022/04/11 11:16:10;;;;;;;4.70;2.80;;;23.20;99.90;;;;;;4945820;28;21353;-65
2022/04/11 11:18:47;;;;;;;5.85;2.85;;;22.60;99.90;;;;;;4943951;28;20190;-62
2022/04/11 11:21:17;;;;;;;6.80;3.15;;;22.50;99.90;;;;;;4946721;28;20983;-64
2022/04/11 11:24:04;;;;;;;4.72;2.80;;;22.70;99.90;;;;;;4961355;28;21114;-65
2022/04/11 11:26:46;;;;;;;5.22;2.97;;;23.80;99.90;;;;;;4945675;28;20719;-62
2022/04/11 11:29:21;;;;;;;6.55;2.95;;;23.00;99.90;;;;;;4947594;28;20203;-62
2022/04/11 11:31:50;;;;;;;4.22;2.70;;;23.80;99.90;;;;;;4946800;28;20213;-65
2022/04/11 11:34:19;;;;;;;7.30;3.05;;;22.90;99.90;;;;;;4946710;28;20202;-63
2022/04/11 11:36:47;;;;;;;5.10;3.40;;;23.30;99.90;;;;;;4957866;28;20222;-68
2022/04/11 11:39:19;;;;;;;5.47;3.05;;;23.90;99.90;;;;;;4960652;28;20194;-64
2022/04/11 11:41:47;;;;;;;4.35;2.83;;;23.30;99.90;;;;;;4947259;28;20214;-64
2022/04/11 11:44:14;;;;;;;6.10;2.92;;;23.10;99.90;;;;;;4961332;28;20249;-65
2022/04/11 11:46:55;;;;;;;4.72;3.30;;;21.90;99.90;;;;;;4941805;28;20199;-65
2022/04/11 11:49:24;;;;;;;7.32;3.30;;;22.80;99.90;;;;;;4955683;28;20279;-65
2022/04/11 11:51:52;;;;;;;5.88;3.10;;;22.80;99.90;;;;;;4928295;28;20202;-65
2022/04/11 11:54:36;;;;;;;5.88;2.88;;;22.00;99.90;;;;;;4939755;28;20210;-66
2022/04/11 11:57:17;;;;;;;6.30;3.33;;;22.10;99.90;;;;;;4935537;28;20234;-63
2022/04/11 11:59:59;;;;;;;5.03;2.83;;;21.50;99.90;;;;;;4951865;28;20197;-64
2022/04/11 12:05:20;;;;;;;4.85;3.00;;;21.40;99.90;;;;;;4954736;28;20203;-68
2022/04/11 12:07:49;;;;;;;4.82;3.25;;;21.30;99.90;;;;;;4942982;28;20209;-64
2022/04/11 12:10:18;;;;;;;5.40;3.22;;;21.70;99.90;;;;;;4961182;28;20226;-63
2022/04/11 12:12:46;;;;;;;5.53;3.17;;;21.10;99.90;;;;;;4943868;28;20242;-64
2022/04/11 12:15:14;;;;;;;6.07;3.35;;;20.40;99.90;;;;;;4958311;28;20657;-63
2022/04/11 12:17:44;;;;;;;5.53;3.40;;;19.90;99.90;;;;;;4957686;28;20213;-64
2022/04/11 12:20:21;;;;;;;10.35;4.00;;;19.90;99.90;;;;;;4960534;28;20289;-64
2022/04/11 12:23:13;;;;;;;5.32;3.53;;;18.90;99.90;;;;;;4943503;28;20297;-67
2022/04/11 12:25:49;;;;;;;6.90;3.30;;;18.70;99.90;;;;;;4937824;28;20298;-68
2022/04/11 12:28:27;;;;;;;4.75;3.42;;;18.80;99.90;;;;;;4959738;28;20218;-64
2022/04/11 12:31:03;;;;;;;3.53;3.08;;;20.40;99.90;;;;;;4959991;28;20606;-65
2022/04/11 12:33:44;;;;;;;5.28;3.85;;;19.90;99.90;;;;;;4957908;28;20218;-66
2022/04/11 12:36:12;;;;;;;4.93;3.95;;;19.00;99.90;;;;;;4957788;28;20253;-67
2022/04/11 12:39:12;;;;;;;6.13;3.58;;;18.70;99.90;;;;;;4958570;28;20794;-67
2022/04/11 12:41:44;;;;;;;7.53;3.83;;;18.50;99.90;;;;;;4962937;28;20581;-66
2022/04/11 12:44:11;;;;;;;5.03;3.55;;;18.20;99.90;;;;;;4946058;28;20198;-66
2022/04/11 12:46:39;;;;;;;3.90;3.47;;;18.30;99.90;;;;;;4933995;28;20262;-66
2022/04/11 12:49:08;;;;;;;5.53;3.80;;;17.50;99.90;;;;;;4946246;28;20883;-66
2022/04/11 12:51:35;;;;;;;4.88;3.60;;;17.20;99.90;;;;;;4931999;28;20216;-65
2022/04/11 12:54:07;;;;;;;4.93;3.35;;;17.80;99.90;;;;;;4952041;28;20615;-67
2022/04/11 12:56:46;;;;;;;4.68;3.58;;;17.80;99.90;;;;;;4945410;28;20219;-65
2022/04/11 12:59:34;;;;;;;5.65;3.88;;;17.90;99.90;;;;;;4947916;28;20679;-63
2022/04/11 13:02:07;;;;;;;5.32;4.00;;;18.10;99.90;;;;;;4956922;28;20258;-63
2022/04/11 13:04:40;;;;;;;6.07;3.58;;;17.50;99.90;;;;;;4950272;28;20208;-64
2022/04/11 13:07:09;;;;;;;3.90;3.20;;;16.40;99.90;;;;;;4963590;28;20685;-64
2022/04/11 13:09:37;;;;;;;6.93;3.63;;;16.70;99.90;;;;;;4958375;28;20222;-66
2022/04/11 13:12:09;;;;;;;7.30;3.70;;;16.70;99.90;;;;;;4959256;28;20198;-65